sensor_id;sensor_type;location;lat;lon;timestamp;pressure;altitude;pressure_sealevel;temperature;humidity
71457;BME280;59263;48.160;11.752;2023-12-20T00:00:50;95889.03;;;5.21;100.00
71457;BME280;59263;48.160;11.752;2023-12-20T00:03:16;95900.50;;;5.28;100.00
71457;BME280;59263;48.160;11.752;2023-12-20T00:05:42;95882.63;;;5.26;100.00
71457;BME280;59263;48.160;11.752;2023-12-20T00:08:07;95895.38;;;5.28;100.00
71457;BME280;59263;48.160;11.752;2023-12-20T00:10:32;95900.91;;;5.22;100.00
71457;BME280;59263;48.160;11.752;2023-12-20T00:12:58;95878.34;;;5.27;100.00
71457;BME280;59263;48.160;11.752;2023-12-20T00:15:23;95877.50;;;5.26;100.00
71457;BME280;59263;48.160;11.752;2023-12-20T00:17:48;95878.94;;;5.30;100.00
71457;BME280;59263;48.160;11.752;2023-12-20T00:20:14;95866.00;;;5.32;100.00
71457;BME280;59263;48.160;11.752;2023-12-20T00:22:39;95865.28;;;5.30;100.00
71457;BME280;59263;48.160;11.752;2023-12-20T00:25:04;95859.44;;;5.28;100.00
71457;BME280;59263;48.160;11.752;2023-12-20T00:27:30;95862.50;;;5.33;100.00
71457;BME280;59263;48.160;11.752;2023-12-20T00:29:55;95868.34;;;5.35;100.00
71457;BME280;59263;48.160;11.752;2023-12-20T00:32:20;95860.53;;;5.37;100.00
71457;BME280;59263;48.160;11.752;2023-12-20T00:34:46;95860.44;;;5.38;100.00
71457;BME280;59263;48.160;11.752;2023-12-20T00:37:11;95859.25;;;5.31;100.00
71457;BME280;59263;48.160;11.752;2023-12-20T00:39:36;95850.38;;;5.35;100.00
71457;BME280;59263;48.160;11.752;2023-12-20T00:42:02;95860.19;;;5.41;100.00
71457;BME280;59263;48.160;11.752;2023-12-20T00:44:27;95853.09;;;5.45;100.00
71457;BME280;59263;48.160;11.752;2023-12-20T00:46:53;95832.31;;;5.37;100.00
71457;BME280;59263;48.160;11.752;2023-12-20T00:49:18;95841.31;;;5.42;100.00
71457;BME280;59263;48.160;11.752;2023-12-20T00:51:43;95843.38;;;5.37;100.00
71457;BME280;59263;48.160;11.752;2023-12-20T00:54:09;95842.00;;;5.44;100.00
71457;BME280;59263;48.160;11.752;2023-12-20T00:56:34;95819.91;;;5.54;100.00
71457;BME280;59263;48.160;11.752;2023-12-20T00:59:00;95829.00;;;5.58;100.00
71457;BME280;59263;48.160;11.752;2023-12-20T01:01:25;95823.66;;;5.62;100.00
71457;BME280;59263;48.160;11.752;2023-12-20T01:03:51;95826.66;;;5.55;100.00
71457;BME280;59263;48.160;11.752;2023-12-20T01:06:16;95818.41;;;5.63;100.00
71457;BME280;59263;48.160;11.752;2023-12-20T01:08:42;95817.34;;;5.66;100.00
71457;BME280;59263;48.160;11.752;2023-12-20T01:11:07;95812.00;;;5.69;100.00
71457;BME280;59263;48.160;11.752;2023-12-20T01:13:33;95815.97;;;5.73;100.00
71457;BME280;59263;48.160;11.752;2023-12-20T01:15:58;95804.53;;;5.77;100.00
71457;BME280;59263;48.160;11.752;2023-12-20T01:18:24;95799.41;;;5.77;100.00
71457;BME280;59263;48.160;11.752;2023-12-20T01:20:49;95782.38;;;5.76;100.00
71457;BME280;59263;48.160;11.752;2023-12-20T01:23:14;95788.47;;;5.75;100.00
71457;BME280;59263;48.160;11.752;2023-12-20T01:25:40;95787.28;;;5.79;100.00
71457;BME280;59263;48.160;11.752;2023-12-20T01:28:05;95778.50;;;5.70;100.00
71457;BME280;59263;48.160;11.752;2023-12-20T01:30:30;95787.03;;;5.82;100.00
71457;BME280;59263;48.160;11.752;2023-12-20T01:32:56;95779.09;;;5.74;100.00
71457;BME280;59263;48.160;11.752;2023-12-20T01:35:21;95784.00;;;5.77;100.00
71457;BME280;59263;48.160;11.752;2023-12-20T01:37:46;95777.94;;;5.78;100.00
71457;BME280;59263;48.160;11.752;2023-12-20T01:40:12;95781.91;;;5.82;100.00
71457;BME280;59263;48.160;11.752;2023-12-20T01:42:37;95775.16;;;5.81;100.00
71457;BME280;59263;48.160;11.752;2023-12-20T01:45:03;95769.78;;;5.84;100.00
71457;BME280;59263;48.160;11.752;2023-12-20T01:47:28;95778.31;;;5.85;100.00
71457;BME280;59263;48.160;11.752;2023-12-20T01:49:54;95779.13;;;5.85;100.00
71457;BME280;59263;48.160;11.752;2023-12-20T01:52:22;95785.19;;;5.84;100.00
71457;BME280;59263;48.160;11.752;2023-12-20T01:54:48;95774.69;;;5.87;100.00
71457;BME280;59263;48.160;11.752;2023-12-20T01:57:14;95775.63;;;5.75;100.00
71457;BME280;59263;48.160;11.752;2023-12-20T01:59:40;95770.72;;;5.72;100.00
71457;BME280;59263;48.160;11.752;2023-12-20T02:02:07;95766.50;;;5.71;100.00
71457;BME280;59263;48.160;11.752;2023-12-20T02:04:33;95750.19;;;5.72;100.00
71457;BME280;59263;48.160;11.752;2023-12-20T02:06:59;95741.16;;;5.66;100.00
71457;BME280;59263;48.160;11.752;2023-12-20T02:09:24;95731.97;;;5.64;100.00
71457;BME280;59263;48.160;11.752;2023-12-20T02:11:50;95746.88;;;5.70;100.00
71457;BME280;59263;48.160;11.752;2023-12-20T02:14:15;95738.03;;;5.74;100.00
71457;BME280;59263;48.160;11.752;2023-12-20T02:16:41;95722.03;;;5.70;100.00
71457;BME280;59263;48.160;11.752;2023-12-20T02:19:13;95717.97;;;5.79;100.00
71457;BME280;59263;48.160;11.752;2023-12-20T02:21:38;95705.94;;;5.79;100.00
71457;BME280;59263;48.160;11.752;2023-12-20T02:24:04;95708.16;;;5.84;100.00
71457;BME280;59263;48.160;11.752;2023-12-20T02:26:29;95700.69;;;5.81;100.00
71457;BME280;59263;48.160;11.752;2023-12-20T02:28:56;95686.34;;;5.78;100.00
71457;BME280;59263;48.160;11.752;2023-12-20T02:31:23;95693.94;;;5.91;100.00
71457;BME280;59263;48.160;11.752;2023-12-20T02:33:48;95693.59;;;5.96;100.00
71457;BME280;59263;48.160;11.752;2023-12-20T02:36:13;95693.22;;;5.89;100.00
71457;BME280;59263;48.160;11.752;2023-12-20T02:38:39;95706.06;;;5.89;100.00
71457;BME280;59263;48.160;11.752;2023-12-20T02:41:04;95688.66;;;5.81;100.00
71457;BME280;59263;48.160;11.752;2023-12-20T02:43:29;95683.31;;;5.96;100.00
71457;BME280;59263;48.160;11.752;2023-12-20T02:45:55;95700.34;;;6.08;100.00
71457;BME280;59263;48.160;11.752;2023-12-20T02:48:20;95695.31;;;6.18;100.00
71457;BME280;59263;48.160;11.752;2023-12-20T02:50:47;95699.75;;;6.27;100.00
71457;BME280;59263;48.160;11.752;2023-12-20T02:53:14;95665.88;;;6.22;100.00
71457;BME280;59263;48.160;11.752;2023-12-20T02:55:39;95655.88;;;6.07;100.00
71457;BME280;59263;48.160;11.752;2023-12-20T02:58:04;95679.53;;;6.34;100.00
71457;BME280;59263;48.160;11.752;2023-12-20T03:00:30;95677.56;;;6.26;100.00
71457;BME280;59263;48.160;11.752;2023-12-20T03:02:55;95668.66;;;6.30;100.00
71457;BME280;59263;48.160;11.752;2023-12-20T03:05:20;95667.75;;;6.31;100.00
71457;BME280;59263;48.160;11.752;2023-12-20T03:07:46;95676.38;;;6.30;100.00
71457;BME280;59263;48.160;11.752;2023-12-20T03:10:11;95674.34;;;6.13;100.00
71457;BME280;59263;48.160;11.752;2023-12-20T03:12:37;95680.84;;;6.28;100.00
71457;BME280;59263;48.160;11.752;2023-12-20T03:15:02;95676.63;;;6.38;100.00
71457;BME280;59263;48.160;11.752;2023-12-20T03:17:27;95678.81;;;6.43;100.00
71457;BME280;59263;48.160;11.752;2023-12-20T03:19:53;95689.19;;;6.41;100.00
71457;BME280;59263;48.160;11.752;2023-12-20T03:22:18;95686.41;;;6.44;100.00
71457;BME280;59263;48.160;11.752;2023-12-20T03:24:43;95684.63;;;6.45;100.00
71457;BME280;59263;48.160;11.752;2023-12-20T03:27:09;95689.91;;;6.43;100.00
71457;BME280;59263;48.160;11.752;2023-12-20T03:29:34;95680.44;;;6.44;100.00
71457;BME280;59263;48.160;11.752;2023-12-20T03:32:00;95688.03;;;6.45;100.00
71457;BME280;59263;48.160;11.752;2023-12-20T03:34:26;95668.44;;;6.33;100.00
71457;BME280;59263;48.160;11.752;2023-12-20T03:36:51;95683.63;;;6.36;100.00
71457;BME280;59263;48.160;11.752;2023-12-20T03:39:17;95689.66;;;6.46;100.00
71457;BME280;59263;48.160;11.752;2023-12-20T03:41:42;95692.28;;;6.35;100.00
71457;BME280;59263;48.160;11.752;2023-12-20T03:44:08;95700.63;;;6.48;100.00
71457;BME280;59263;48.160;11.752;2023-12-20T03:46:33;95709.09;;;6.39;100.00
71457;BME280;59263;48.160;11.752;2023-12-20T03:48:58;95713.78;;;6.34;100.00
71457;BME280;59263;48.160;11.752;2023-12-20T03:51:23;95720.75;;;6.43;100.00
71457;BME280;59263;48.160;11.752;2023-12-20T03:53:49;95731.25;;;6.40;100.00
71457;BME280;59263;48.160;11.752;2023-12-20T03:56:14;95727.06;;;6.39;100.00
71457;BME280;59263;48.160;11.752;2023-12-20T03:58:39;95741.06;;;6.46;100.00
71457;BME280;59263;48.160;11.752;2023-12-20T04:01:09;95743.75;;;6.45;100.00
71457;BME280;59263;48.160;11.752;2023-12-20T04:03:35;95747.03;;;6.36;100.00
71457;BME280;59263;48.160;11.752;2023-12-20T04:06:01;95752.31;;;6.34;100.00
71457;BME280;59263;48.160;11.752;2023-12-20T04:08:26;95750.91;;;6.30;100.00
71457;BME280;59263;48.160;11.752;2023-12-20T04:10:51;95760.94;;;6.22;100.00
71457;BME280;59263;48.160;11.752;2023-12-20T04:13:17;95755.22;;;6.18;100.00
71457;BME280;59263;48.160;11.752;2023-12-20T04:15:42;95760.72;;;6.14;100.00
71457;BME280;59263;48.160;11.752;2023-12-20T04:18:07;95765.16;;;6.12;100.00
71457;BME280;59263;48.160;11.752;2023-12-20T04:20:33;95766.31;;;6.07;100.00
71457;BME280;59263;48.160;11.752;2023-12-20T04:22:58;95780.56;;;6.00;100.00
71457;BME280;59263;48.160;11.752;2023-12-20T04:25:24;95778.25;;;5.97;100.00
71457;BME280;59263;48.160;11.752;2023-12-20T04:27:50;95771.19;;;5.88;100.00
71457;BME280;59263;48.160;11.752;2023-12-20T04:30:15;95764.91;;;5.92;100.00
71457;BME280;59263;48.160;11.752;2023-12-20T04:32:40;95779.94;;;5.86;100.00
71457;BME280;59263;48.160;11.752;2023-12-20T04:35:06;95780.28;;;5.81;100.00
71457;BME280;59263;48.160;11.752;2023-12-20T04:37:33;95773.53;;;5.80;100.00
71457;BME280;59263;48.160;11.752;2023-12-20T04:39:59;95771.75;;;5.69;100.00
71457;BME280;59263;48.160;11.752;2023-12-20T04:42:24;95782.38;;;5.76;100.00
71457;BME280;59263;48.160;11.752;2023-12-20T04:44:49;95779.59;;;5.79;100.00
71457;BME280;59263;48.160;11.752;2023-12-20T04:47:15;95784.47;;;5.71;100.00
71457;BME280;59263;48.160;11.752;2023-12-20T04:49:40;95791.03;;;5.75;100.00
71457;BME280;59263;48.160;11.752;2023-12-20T04:52:05;95806.44;;;5.75;100.00
71457;BME280;59263;48.160;11.752;2023-12-20T04:54:31;95796.03;;;5.76;100.00
71457;BME280;59263;48.160;11.752;2023-12-20T04:56:56;95813.41;;;5.73;100.00
71457;BME280;59263;48.160;11.752;2023-12-20T04:59:21;95811.19;;;5.68;100.00
71457;BME280;59263;48.160;11.752;2023-12-20T05:01:47;95813.25;;;5.63;100.00
71457;BME280;59263;48.160;11.752;2023-12-20T05:04:12;95825.97;;;5.53;100.00
71457;BME280;59263;48.160;11.752;2023-12-20T05:06:38;95837.72;;;5.56;100.00
71457;BME280;59263;48.160;11.752;2023-12-20T05:09:03;95845.78;;;5.51;100.00
71457;BME280;59263;48.160;11.752;2023-12-20T05:11:29;95849.50;;;5.47;100.00
71457;BME280;59263;48.160;11.752;2023-12-20T05:13:54;95872.81;;;5.44;100.00
71457;BME280;59263;48.160;11.752;2023-12-20T05:16:19;95852.44;;;5.30;100.00
71457;BME280;59263;48.160;11.752;2023-12-20T05:18:47;95873.84;;;5.18;100.00
71457;BME280;59263;48.160;11.752;2023-12-20T05:21:13;95888.03;;;5.10;100.00
71457;BME280;59263;48.160;11.752;2023-12-20T05:23:39;95900.56;;;5.02;100.00
71457;BME280;59263;48.160;11.752;2023-12-20T05:26:04;95906.13;;;4.96;100.00
71457;BME280;59263;48.160;11.752;2023-12-20T05:28:29;95892.25;;;4.75;100.00
71457;BME280;59263;48.160;11.752;2023-12-20T05:30:55;95899.00;;;4.76;100.00
71457;BME280;59263;48.160;11.752;2023-12-20T05:33:20;95903.75;;;4.56;100.00
71457;BME280;59263;48.160;11.752;2023-12-20T05:35:45;95912.03;;;4.73;100.00
71457;BME280;59263;48.160;11.752;2023-12-20T05:38:11;95922.81;;;4.65;100.00
71457;BME280;59263;48.160;11.752;2023-12-20T05:40:36;95934.69;;;4.66;100.00
71457;BME280;59263;48.160;11.752;2023-12-20T05:43:02;95936.09;;;4.70;100.00
71457;BME280;59263;48.160;11.752;2023-12-20T05:45:27;95931.19;;;4.67;100.00
71457;BME280;59263;48.160;11.752;2023-12-20T05:47:53;95923.84;;;4.50;100.00
71457;BME280;59263;48.160;11.752;2023-12-20T05:50:18;95945.97;;;4.64;100.00
71457;BME280;59263;48.160;11.752;2023-12-20T05:52:44;95948.63;;;4.62;100.00
71457;BME280;59263;48.160;11.752;2023-12-20T05:55:09;95942.78;;;4.47;100.00
71457;BME280;59263;48.160;11.752;2023-12-20T05:57:35;95937.75;;;4.58;100.00
71457;BME280;59263;48.160;11.752;2023-12-20T06:00:00;95943.53;;;4.49;100.00
71457;BME280;59263;48.160;11.752;2023-12-20T06:02:25;95953.53;;;4.52;100.00
71457;BME280;59263;48.160;11.752;2023-12-20T06:04:51;95961.97;;;4.54;100.00
71457;BME280;59263;48.160;11.752;2023-12-20T06:07:16;95952.84;;;4.50;100.00
71457;BME280;59263;48.160;11.752;2023-12-20T06:09:42;95961.47;;;4.49;100.00
71457;BME280;59263;48.160;11.752;2023-12-20T06:12:08;95956.34;;;4.49;100.00
71457;BME280;59263;48.160;11.752;2023-12-20T06:14:34;95938.19;;;4.27;100.00
71457;BME280;59263;48.160;11.752;2023-12-20T06:17:00;95966.34;;;4.40;100.00
71457;BME280;59263;48.160;11.752;2023-12-20T06:19:26;95970.78;;;4.38;100.00
71457;BME280;59263;48.160;11.752;2023-12-20T06:21:51;95982.22;;;4.32;100.00
71457;BME280;59263;48.160;11.752;2023-12-20T06:24:17;95973.53;;;4.34;100.00
71457;BME280;59263;48.160;11.752;2023-12-20T06:26:42;95978.31;;;4.26;100.00
71457;BME280;59263;48.160;11.752;2023-12-20T06:29:08;95959.66;;;4.11;100.00
71457;BME280;59263;48.160;11.752;2023-12-20T06:31:33;95976.88;;;4.09;100.00
71457;BME280;59263;48.160;11.752;2023-12-20T06:33:58;95983.53;;;4.12;100.00
71457;BME280;59263;48.160;11.752;2023-12-20T06:36:28;95992.25;;;4.09;100.00
71457;BME280;59263;48.160;11.752;2023-12-20T06:38:53;95986.09;;;4.12;100.00
71457;BME280;59263;48.160;11.752;2023-12-20T06:41:19;96004.09;;;4.10;100.00
71457;BME280;59263;48.160;11.752;2023-12-20T06:43:44;96007.97;;;4.03;100.00
71457;BME280;59263;48.160;11.752;2023-12-20T06:46:09;96015.78;;;4.02;100.00
71457;BME280;59263;48.160;11.752;2023-12-20T06:48:35;96011.47;;;4.02;100.00
71457;BME280;59263;48.160;11.752;2023-12-20T06:51:01;96015.34;;;3.95;100.00
71457;BME280;59263;48.160;11.752;2023-12-20T06:53:27;96019.81;;;3.92;100.00
71457;BME280;59263;48.160;11.752;2023-12-20T06:55:53;96027.63;;;3.90;100.00
71457;BME280;59263;48.160;11.752;2023-12-20T06:58:18;96021.13;;;3.84;100.00
71457;BME280;59263;48.160;11.752;2023-12-20T07:00:43;96029.63;;;3.85;100.00
71457;BME280;59263;48.160;11.752;2023-12-20T07:03:09;96027.25;;;3.82;100.00
71457;BME280;59263;48.160;11.752;2023-12-20T07:05:34;96030.75;;;3.81;100.00
71457;BME280;59263;48.160;11.752;2023-12-20T07:08:00;96033.31;;;3.81;100.00
71457;BME280;59263;48.160;11.752;2023-12-20T07:10:25;96035.16;;;3.79;100.00
71457;BME280;59263;48.160;11.752;2023-12-20T07:12:51;96035.16;;;3.79;100.00
71457;BME280;59263;48.160;11.752;2023-12-20T07:15:17;96039.53;;;3.77;100.00
71457;BME280;59263;48.160;11.752;2023-12-20T07:17:43;96047.22;;;3.77;100.00
71457;BME280;59263;48.160;11.752;2023-12-20T07:20:09;96056.34;;;3.81;100.00
71457;BME280;59263;48.160;11.752;2023-12-20T07:22:36;96055.63;;;3.79;100.00
71457;BME280;59263;48.160;11.752;2023-12-20T07:25:01;96069.31;;;3.78;100.00
71457;BME280;59263;48.160;11.752;2023-12-20T07:27:27;96052.13;;;3.80;100.00
71457;BME280;59263;48.160;11.752;2023-12-20T07:29:52;96067.69;;;3.77;100.00
71457;BME280;59263;48.160;11.752;2023-12-20T07:32:18;96066.69;;;3.79;100.00
71457;BME280;59263;48.160;11.752;2023-12-20T07:34:44;96064.00;;;3.81;100.00
71457;BME280;59263;48.160;11.752;2023-12-20T07:37:09;96067.31;;;3.83;100.00
71457;BME280;59263;48.160;11.752;2023-12-20T07:39:39;96068.50;;;3.77;100.00
71457;BME280;59263;48.160;11.752;2023-12-20T07:42:05;96064.00;;;3.81;100.00
71457;BME280;59263;48.160;11.752;2023-12-20T07:44:30;96070.06;;;3.80;100.00
71457;BME280;59263;48.160;11.752;2023-12-20T07:46:56;96061.25;;;3.84;100.00
71457;BME280;59263;48.160;11.752;2023-12-20T07:49:23;96060.34;;;3.85;100.00
71457;BME280;59263;48.160;11.752;2023-12-20T07:51:48;96063.44;;;3.90;100.00
71457;BME280;59263;48.160;11.752;2023-12-20T07:54:13;96062.72;;;3.88;100.00
71457;BME280;59263;48.160;11.752;2023-12-20T07:56:39;96070.94;;;3.93;100.00
71457;BME280;59263;48.160;11.752;2023-12-20T07:59:05;96065.91;;;3.92;100.00
71457;BME280;59263;48.160;11.752;2023-12-20T08:01:30;96065.47;;;3.85;100.00
71457;BME280;59263;48.160;11.752;2023-12-20T08:03:56;96071.03;;;3.92;100.00
71457;BME280;59263;48.160;11.752;2023-12-20T08:06:22;96061.78;;;3.89;100.00
71457;BME280;59263;48.160;11.752;2023-12-20T08:08:47;96075.31;;;3.91;100.00
71457;BME280;59263;48.160;11.752;2023-12-20T08:11:13;96071.84;;;3.92;100.00
71457;BME280;59263;48.160;11.752;2023-12-20T08:13:38;96080.00;;;3.84;100.00
71457;BME280;59263;48.160;11.752;2023-12-20T08:16:04;96084.13;;;3.87;100.00
71457;BME280;59263;48.160;11.752;2023-12-20T08:18:29;96078.63;;;3.93;100.00
71457;BME280;59263;48.160;11.752;2023-12-20T08:20:55;96076.13;;;3.92;100.00
71457;BME280;59263;48.160;11.752;2023-12-20T08:23:20;96082.47;;;3.86;100.00
71457;BME280;59263;48.160;11.752;2023-12-20T08:25:46;96088.94;;;3.92;100.00
71457;BME280;59263;48.160;11.752;2023-12-20T08:28:12;96098.72;;;3.85;100.00
71457;BME280;59263;48.160;11.752;2023-12-20T08:30:37;96086.69;;;3.73;100.00
71457;BME280;59263;48.160;11.752;2023-12-20T08:33:02;96111.19;;;3.77;100.00
71457;BME280;59263;48.160;11.752;2023-12-20T08:35:28;96104.72;;;3.71;100.00
71457;BME280;59263;48.160;11.752;2023-12-20T08:37:53;96102.41;;;3.67;100.00
71457;BME280;59263;48.160;11.752;2023-12-20T08:40:19;96109.00;;;3.71;100.00
71457;BME280;59263;48.160;11.752;2023-12-20T08:42:45;96107.19;;;3.73;100.00
71457;BME280;59263;48.160;11.752;2023-12-20T08:45:10;96102.78;;;3.75;100.00
71457;BME280;59263;48.160;11.752;2023-12-20T08:47:36;96090.72;;;3.77;100.00
71457;BME280;59263;48.160;11.752;2023-12-20T08:50:02;96103.88;;;3.71;100.00
71457;BME280;59263;48.160;11.752;2023-12-20T08:52:28;96107.81;;;3.76;100.00
71457;BME280;59263;48.160;11.752;2023-12-20T08:54:54;96102.31;;;3.82;100.00
71457;BME280;59263;48.160;11.752;2023-12-20T08:57:20;96101.47;;;3.82;100.00
71457;BME280;59263;48.160;11.752;2023-12-20T08:59:47;96110.41;;;3.89;100.00
71457;BME280;59263;48.160;11.752;2023-12-20T09:02:12;96102.31;;;3.82;100.00
71457;BME280;59263;48.160;11.752;2023-12-20T09:04:38;96107.16;;;3.87;100.00
71457;BME280;59263;48.160;11.752;2023-12-20T09:07:04;96097.63;;;3.89;100.00
71457;BME280;59263;48.160;11.752;2023-12-20T09:09:29;96096.13;;;3.99;100.00
71457;BME280;59263;48.160;11.752;2023-12-20T09:11:57;96091.31;;;3.95;100.00
71457;BME280;59263;48.160;11.752;2023-12-20T09:14:23;96093.41;;;4.02;100.00
71457;BME280;59263;48.160;11.752;2023-12-20T09:16:48;96089.72;;;4.06;100.00
71457;BME280;59263;48.160;11.752;2023-12-20T09:19:16;96099.50;;;4.00;100.00
71457;BME280;59263;48.160;11.752;2023-12-20T09:21:41;96096.28;;;4.10;100.00
71457;BME280;59263;48.160;11.752;2023-12-20T09:24:07;96088.59;;;4.10;100.00
71457;BME280;59263;48.160;11.752;2023-12-20T09:26:33;96088.72;;;4.09;100.00
71457;BME280;59263;48.160;11.752;2023-12-20T09:28:59;96093.22;;;4.05;100.00
71457;BME280;59263;48.160;11.752;2023-12-20T09:31:24;96084.41;;;4.09;100.00
71457;BME280;59263;48.160;11.752;2023-12-20T09:33:49;96097.31;;;4.08;100.00
71457;BME280;59263;48.160;11.752;2023-12-20T09:36:15;96096.28;;;4.10;100.00
71457;BME280;59263;48.160;11.752;2023-12-20T09:38:40;96103.66;;;4.15;100.00
71457;BME280;59263;48.160;11.752;2023-12-20T09:41:05;96089.34;;;4.12;100.00
71457;BME280;59263;48.160;11.752;2023-12-20T09:43:33;96085.03;;;4.13;100.00
71457;BME280;59263;48.160;11.752;2023-12-20T09:46:02;96086.03;;;4.10;100.00
71457;BME280;59263;48.160;11.752;2023-12-20T09:48:29;96077.09;;;4.03;100.00
71457;BME280;59263;48.160;11.752;2023-12-20T09:50:55;96078.06;;;4.15;100.00
71457;BME280;59263;48.160;11.752;2023-12-20T09:53:21;96077.06;;;4.18;100.00
71457;BME280;59263;48.160;11.752;2023-12-20T09:55:48;96075.25;;;4.20;100.00
71457;BME280;59263;48.160;11.752;2023-12-20T09:58:14;96071.56;;;4.24;100.00
71457;BME280;59263;48.160;11.752;2023-12-20T10:00:40;96066.94;;;4.29;100.00
71457;BME280;59263;48.160;11.752;2023-12-20T10:03:06;96083.25;;;4.28;100.00
71457;BME280;59263;48.160;11.752;2023-12-20T10:05:33;96076.50;;;4.27;100.00
71457;BME280;59263;48.160;11.752;2023-12-20T10:08:00;96077.53;;;4.37;100.00
71457;BME280;59263;48.160;11.752;2023-12-20T10:10:26;96072.19;;;4.40;100.00
71457;BME280;59263;48.160;11.752;2023-12-20T10:15:27;96072.63;;;4.34;100.00
71457;BME280;59263;48.160;11.752;2023-12-20T10:17:52;96084.09;;;4.41;100.00
71457;BME280;59263;48.160;11.752;2023-12-20T10:20:17;96072.00;;;4.43;100.00
71457;BME280;59263;48.160;11.752;2023-12-20T10:22:43;96064.84;;;4.48;100.00
71457;BME280;59263;48.160;11.752;2023-12-20T10:25:08;96044.44;;;4.47;100.00
71457;BME280;59263;48.160;11.752;2023-12-20T10:27:33;96069.19;;;4.60;100.00
71457;BME280;59263;48.160;11.752;2023-12-20T10:29:59;96070.19;;;4.58;100.00
71457;BME280;59263;48.160;11.752;2023-12-20T10:32:26;96063.88;;;4.64;100.00
71457;BME280;59263;48.160;11.752;2023-12-20T10:34:53;96060.69;;;4.60;100.00
71457;BME280;59263;48.160;11.752;2023-12-20T10:37:18;96058.75;;;4.64;100.00
71457;BME280;59263;48.160;11.752;2023-12-20T10:39:49;96049.28;;;4.51;100.00
71457;BME280;59263;48.160;11.752;2023-12-20T10:42:16;96044.16;;;4.51;100.00
71457;BME280;59263;48.160;11.752;2023-12-20T10:44:42;96050.44;;;4.60;100.00
71457;BME280;59263;48.160;11.752;2023-12-20T10:47:09;96050.13;;;4.65;100.00
71457;BME280;59263;48.160;11.752;2023-12-20T10:49:37;96049.81;;;4.56;100.00
71457;BME280;59263;48.160;11.752;2023-12-20T10:52:03;96049.69;;;4.71;100.00
71457;BME280;59263;48.160;11.752;2023-12-20T10:54:30;96053.00;;;4.73;100.00
71457;BME280;59263;48.160;11.752;2023-12-20T10:56:57;96048.91;;;4.83;100.00
71457;BME280;59263;48.160;11.752;2023-12-20T10:59:23;96049.41;;;4.88;100.00
71457;BME280;59263;48.160;11.752;2023-12-20T11:01:50;96045.41;;;4.84;100.00
71457;BME280;59263;48.160;11.752;2023-12-20T11:04:21;96041.72;;;4.88;100.00
71457;BME280;59263;48.160;11.752;2023-12-20T11:06:53;96034.44;;;4.82;100.00
71457;BME280;59263;48.160;11.752;2023-12-20T11:09:26;96043.34;;;4.89;100.00
71457;BME280;59263;48.160;11.752;2023-12-20T11:12:24;96040.09;;;4.87;100.00
71457;BME280;59263;48.160;11.752;2023-12-20T11:14:54;96038.13;;;4.78;100.00
71457;BME280;59263;48.160;11.752;2023-12-20T11:17:28;96038.03;;;4.79;100.00
71457;BME280;59263;48.160;11.752;2023-12-20T11:22:22;96042.84;;;4.71;100.00
71457;BME280;59263;48.160;11.752;2023-12-20T11:24:48;96042.34;;;4.79;100.00
71457;BME280;59263;48.160;11.752;2023-12-20T11:27:14;96036.78;;;4.85;100.00
71457;BME280;59263;48.160;11.752;2023-12-20T11:29:40;96013.81;;;4.71;100.00
71457;BME280;59263;48.160;11.752;2023-12-20T11:32:29;96030.97;;;4.83;100.00
71457;BME280;59263;48.160;11.752;2023-12-20T11:35:00;96021.53;;;4.83;100.00
71457;BME280;59263;48.160;11.752;2023-12-20T11:37:34;96025.09;;;4.81;100.00
71457;BME280;59263;48.160;11.752;2023-12-20T11:40:20;96020.16;;;4.78;100.00
71457;BME280;59263;48.160;11.752;2023-12-20T11:42:49;96022.13;;;4.87;100.00
71457;BME280;59263;48.160;11.752;2023-12-20T11:45:18;96010.34;;;4.84;100.00
71457;BME280;59263;48.160;11.752;2023-12-20T11:47:47;96009.31;;;4.87;100.00
71457;BME280;59263;48.160;11.752;2023-12-20T11:50:15;95997.81;;;4.93;100.00
71457;BME280;59263;48.160;11.752;2023-12-20T11:52:40;95990.25;;;4.91;100.00
71457;BME280;59263;48.160;11.752;2023-12-20T11:55:06;95980.28;;;4.99;100.00
71457;BME280;59263;48.160;11.752;2023-12-20T11:57:33;95996.88;;;5.06;100.00
71457;BME280;59263;48.160;11.752;2023-12-20T11:59:59;95996.56;;;5.11;100.00
71457;BME280;59263;48.160;11.752;2023-12-20T12:02:24;95992.03;;;5.15;100.00
71457;BME280;59263;48.160;11.752;2023-12-20T12:04:50;95986.53;;;5.08;100.00
71457;BME280;59263;48.160;11.752;2023-12-20T12:07:18;95981.91;;;5.13;100.00
71457;BME280;59263;48.160;11.752;2023-12-20T12:09:44;95972.53;;;5.25;100.00
71457;BME280;59263;48.160;11.752;2023-12-20T12:12:11;95979.69;;;5.32;100.00
71457;BME280;59263;48.160;11.752;2023-12-20T12:14:37;95983.81;;;5.35;100.00
71457;BME280;59263;48.160;11.752;2023-12-20T12:17:04;95980.31;;;5.36;100.00
71457;BME280;59263;48.160;11.752;2023-12-20T12:19:29;95953.16;;;5.21;100.00
71457;BME280;59263;48.160;11.752;2023-12-20T12:22:14;95970.53;;;5.41;100.00
71457;BME280;59263;48.160;11.752;2023-12-20T12:24:41;95951.16;;;5.37;100.00
71457;BME280;59263;48.160;11.752;2023-12-20T12:27:07;95950.94;;;5.40;100.00
71457;BME280;59263;48.160;11.752;2023-12-20T12:29:33;95949.09;;;5.42;100.00
71457;BME280;59263;48.160;11.752;2023-12-20T12:31:59;95938.00;;;5.42;100.00
71457;BME280;59263;48.160;11.752;2023-12-20T12:34:27;95948.81;;;5.34;100.00
71457;BME280;59263;48.160;11.752;2023-12-20T12:36:52;95929.81;;;5.37;100.00
71457;BME280;59263;48.160;11.752;2023-12-20T12:39:18;95928.00;;;5.26;100.00
71457;BME280;59263;48.160;11.752;2023-12-20T12:41:43;95937.88;;;5.19;100.00
71457;BME280;59263;48.160;11.752;2023-12-20T12:44:09;95949.31;;;5.26;100.00
71457;BME280;59263;48.160;11.752;2023-12-20T12:46:34;95942.25;;;5.30;100.00
71457;BME280;59263;48.160;11.752;2023-12-20T12:49:00;95938.97;;;5.28;100.00